createdAt,value
2023-05-08T00:03:31.383Z,4.29
2023-05-08T00:05:59.298Z,4.51
2023-05-08T00:08:26.897Z,4.59
2023-05-08T00:10:54.356Z,4.70
2023-05-08T00:13:24.014Z,4.70
2023-05-08T00:15:51.895Z,4.85
2023-05-08T00:18:19.082Z,4.83
2023-05-08T00:20:46.853Z,4.81
2023-05-08T00:23:13.898Z,4.71
2023-05-08T00:25:41.657Z,4.85
2023-05-08T00:28:10.809Z,4.83
2023-05-08T00:30:38.570Z,4.90
2023-05-08T00:33:06.361Z,4.72
2023-05-08T00:35:33.811Z,4.87
2023-05-08T00:38:02.877Z,4.75
2023-05-08T00:40:31.048Z,4.80
2023-05-08T00:43:00.508Z,4.71
2023-05-08T00:45:35.010Z,4.66
2023-05-08T00:48:04.394Z,4.78
2023-05-08T00:50:33.093Z,4.69
2023-05-08T00:53:05.114Z,4.65
2023-05-08T00:55:33.412Z,4.56
2023-05-08T00:58:00.563Z,4.40
2023-05-08T01:00:29.461Z,4.61
2023-05-08T01:02:57.414Z,4.57
2023-05-08T01:05:30.502Z,4.38
2023-05-08T01:07:58.225Z,4.41
2023-05-08T01:10:34.916Z,4.46
2023-05-08T01:13:29.476Z,4.39
2023-05-08T01:16:20.538Z,4.31
2023-05-08T01:19:23.376Z,4.21
2023-05-08T01:22:16.393Z,4.18
2023-05-08T01:24:50.766Z,4.10
2023-05-08T01:27:46.398Z,4.13
2023-05-08T01:30:28.036Z,4.28
2023-05-08T01:33:08.233Z,4.18
2023-05-08T01:35:51.186Z,4.06
2023-05-08T01:38:52.493Z,3.99
2023-05-08T01:41:28.180Z,3.99
2023-05-08T01:44:16.828Z,4.12
2023-05-08T01:46:51.281Z,4.02
2023-05-08T01:49:26.837Z,4.13
2023-05-08T01:52:01.108Z,4.14
2023-05-08T01:54:34.454Z,4.05
2023-05-08T01:57:04.543Z,4.08
2023-05-08T01:59:35.192Z,3.95
2023-05-08T02:02:04.571Z,4.05
2023-05-08T02:04:37.288Z,3.94
2023-05-08T02:07:08.109Z,4.05
2023-05-08T02:09:35.762Z,3.76
2023-05-08T02:12:07.058Z,3.93
2023-05-08T02:14:36.424Z,3.94
2023-05-08T02:17:06.574Z,3.85
2023-05-08T02:19:36.538Z,3.85
2023-05-08T02:22:06.120Z,3.85
2023-05-08T02:24:35.846Z,3.89
2023-05-08T02:27:04.486Z,3.86
2023-05-08T02:29:32.733Z,3.54
2023-05-08T02:32:02.472Z,3.53
2023-05-08T02:34:31.616Z,3.43
2023-05-08T02:37:00.519Z,3.39
2023-05-08T02:39:31.291Z,3.32
2023-05-08T02:41:58.793Z,3.28
2023-05-08T02:44:26.235Z,3.34
2023-05-08T02:47:06.955Z,3.29
2023-05-08T02:49:46.847Z,3.15
2023-05-08T02:52:24.248Z,3.06
2023-05-08T02:55:16.035Z,3.20
2023-05-08T02:58:02.720Z,3.13
2023-05-08T03:00:34.033Z,3.27
2023-05-08T03:03:14.664Z,3.17
2023-05-08T03:05:50.224Z,3.27
2023-05-08T03:08:24.362Z,3.40
2023-05-08T03:10:54.259Z,3.42
2023-05-08T03:13:22.487Z,3.33
2023-05-08T03:16:03.715Z,3.19
2023-05-08T03:18:40.540Z,3.13
2023-05-08T03:21:13.352Z,2.79
2023-05-08T03:23:46.313Z,2.75
2023-05-08T03:26:22.133Z,2.60
2023-05-08T03:28:51.510Z,2.77
2023-05-08T03:31:24.216Z,2.91
2023-05-08T03:33:58.344Z,2.98
2023-05-08T03:36:29.123Z,3.05
2023-05-08T03:38:59.955Z,3.08
2023-05-08T03:41:28.082Z,3.13
2023-05-08T03:43:57.774Z,3.11
2023-05-08T03:46:27.499Z,3.24
2023-05-08T03:49:01.323Z,3.28
2023-05-08T03:51:32.681Z,3.11
2023-05-08T03:54:01.628Z,3.36
2023-05-08T03:56:32.956Z,3.42
2023-05-08T03:59:15.638Z,3.25
2023-05-08T04:01:56.266Z,3.32
2023-05-08T04:04:46.216Z,3.33
2023-05-08T04:07:32.286Z,3.27
2023-05-08T04:10:28.471Z,3.18
2023-05-08T04:13:08.575Z,3.25
2023-05-08T04:15:51.953Z,3.33
2023-05-08T04:18:29.367Z,3.44
2023-05-08T04:21:02.705Z,3.46
2023-05-08T04:23:35.083Z,3.45
2023-05-08T04:26:05.645Z,3.29
2023-05-08T04:28:35.506Z,3.54
2023-05-08T04:31:06.206Z,3.77
2023-05-08T04:33:35.978Z,3.95
2023-05-08T04:36:05.226Z,3.97
2023-05-08T04:38:39.966Z,4.13
2023-05-08T04:41:09.284Z,4.24
2023-05-08T04:43:38.935Z,4.06
2023-05-08T04:46:09.544Z,4.12
2023-05-08T04:48:37.485Z,4.24
2023-05-08T04:51:05.005Z,4.24
2023-05-08T04:53:33.527Z,4.15
2023-05-08T04:56:03.707Z,4.31
2023-05-08T04:58:30.925Z,4.47
2023-05-08T05:01:04.058Z,4.55
2023-05-08T05:03:33.834Z,4.67
2023-05-08T05:06:03.683Z,4.78
2023-05-08T05:08:32.603Z,5.07
2023-05-08T05:11:02.415Z,5.03
2023-05-08T05:13:31.850Z,5.25
2023-05-08T05:16:03.493Z,5.22
2023-05-08T05:18:32.592Z,5.57
2023-05-08T05:21:05.018Z,5.72
2023-05-08T05:23:33.537Z,5.79
2023-05-08T05:26:04.919Z,5.63
2023-05-08T05:28:36.142Z,5.91
2023-05-08T05:31:05.333Z,6.06
2023-05-08T05:33:34.094Z,6.02
2023-05-08T05:36:04.041Z,6.08
2023-05-08T05:38:32.975Z,6.09
2023-05-08T05:41:06.163Z,6.27
2023-05-08T05:43:34.113Z,6.50
2023-05-08T05:46:10.376Z,6.61
2023-05-08T05:48:44.101Z,6.55
2023-05-08T05:51:13.072Z,6.25
2023-05-08T05:53:45.370Z,6.61
2023-05-08T05:56:14.160Z,6.80
2023-05-08T05:58:47.787Z,6.93
2023-05-08T06:01:16.140Z,7.11
2023-05-08T06:03:45.321Z,6.88
2023-05-08T06:06:15.469Z,7.05
2023-05-08T06:08:46.101Z,7.20
2023-05-08T06:11:14.351Z,7.43
2023-05-08T06:13:42.467Z,7.50
2023-05-08T06:16:11.469Z,7.52
2023-05-08T06:18:42.443Z,7.77
2023-05-08T06:21:12.485Z,8.07
2023-05-08T06:23:44.037Z,7.95
2023-05-08T06:26:12.481Z,8.03
2023-05-08T06:28:43.850Z,7.67
2023-05-08T06:31:13.170Z,7.99
2023-05-08T06:33:41.609Z,8.07
2023-05-08T06:36:11.650Z,8.08
2023-05-08T06:38:39.864Z,8.18
2023-05-08T06:41:07.617Z,8.41
2023-05-08T06:43:35.524Z,8.88
2023-05-08T06:46:09.660Z,8.16
2023-05-08T06:48:41.993Z,8.73
2023-05-08T06:51:13.745Z,8.59
2023-05-08T06:53:45.681Z,8.38
2023-05-08T06:56:13.273Z,9.04
2023-05-08T06:58:41.651Z,9.52
2023-05-08T07:01:10.114Z,9.49
2023-05-08T07:03:42.136Z,9.59
2023-05-08T07:06:12.728Z,9.52
2023-05-08T07:08:41.289Z,9.58
2023-05-08T07:11:10.863Z,9.86
2023-05-08T07:13:39.013Z,10.29
2023-05-08T07:16:12.236Z,9.81
2023-05-08T07:18:45.411Z,9.78
2023-05-08T07:21:16.317Z,9.99
2023-05-08T07:23:45.347Z,10.67
2023-05-08T07:26:14.338Z,10.52
2023-05-08T07:28:52.116Z,10.47
2023-05-08T07:31:21.305Z,10.21
2023-05-08T07:33:54.639Z,10.68
2023-05-08T07:36:23.511Z,10.48
2023-05-08T07:38:50.975Z,10.41
2023-05-08T07:41:18.852Z,10.55
2023-05-08T07:43:46.501Z,10.74
2023-05-08T07:46:18.277Z,10.55
2023-05-08T07:48:46.079Z,10.65
2023-05-08T07:51:15.388Z,10.90
2023-05-08T07:53:44.964Z,10.87
2023-05-08T07:56:12.779Z,11.29
2023-05-08T07:58:43.098Z,11.29
2023-05-08T08:01:10.567Z,11.56
2023-05-08T08:03:38.208Z,11.14
2023-05-08T08:06:06.323Z,11.74
2023-05-08T08:08:34.589Z,11.25
2023-05-08T08:11:03.834Z,11.62
2023-05-08T08:13:36.185Z,12.14
2023-05-08T08:16:05.349Z,12.19
2023-05-08T08:18:38.621Z,12.32
2023-05-08T08:21:09.653Z,12.66
2023-05-08T08:23:37.869Z,12.49
2023-05-08T08:26:09.128Z,12.65
2023-05-08T08:28:36.882Z,12.73
2023-05-08T08:31:05.495Z,12.63
2023-05-08T08:33:32.903Z,12.90
2023-05-08T08:36:00.027Z,12.96
2023-05-08T08:38:31.275Z,12.65
2023-05-08T08:41:00.028Z,13.19
2023-05-08T08:43:30.452Z,12.58
2023-05-08T08:45:59.855Z,12.90
2023-05-08T08:48:31.226Z,12.73
2023-05-08T08:51:05.833Z,13.34
2023-05-08T08:53:44.361Z,13.47
2023-05-08T08:56:18.076Z,13.36
2023-05-08T08:58:52.114Z,13.22
2023-05-08T09:01:21.714Z,14.01
2023-05-08T09:03:52.722Z,14.29
2023-05-08T09:06:22.244Z,13.92
2023-05-08T09:08:55.208Z,14.63
2023-05-08T09:11:23.370Z,14.10
2023-05-08T09:13:51.883Z,13.98
2023-05-08T09:16:18.942Z,14.33
2023-05-08T09:18:53.322Z,14.69
2023-05-08T09:21:23.952Z,14.65
2023-05-08T09:24:06.298Z,14.88
2023-05-08T09:26:37.171Z,15.00
2023-05-08T09:29:11.954Z,14.45
2023-05-08T09:31:42.373Z,15.11
2023-05-08T09:34:30.496Z,14.58
2023-05-08T09:37:11.976Z,15.33
2023-05-08T09:39:43.747Z,15.66
2023-05-08T09:42:15.208Z,15.47
2023-05-08T09:44:51.407Z,15.64
2023-05-08T09:47:25.678Z,15.85
2023-05-08T09:50:09.509Z,15.94
2023-05-08T09:52:38.475Z,16.18
2023-05-08T09:55:11.551Z,15.97
2023-05-08T09:57:41.158Z,15.90
2023-05-08T10:00:11.705Z,16.45
2023-05-08T10:02:55.397Z,16.02
2023-05-08T10:05:28.228Z,16.40
2023-05-08T10:07:56.411Z,16.65
2023-05-08T10:10:31.132Z,16.93
2023-05-08T10:12:59.207Z,16.72
2023-05-08T10:15:34.568Z,16.60
2023-05-08T10:18:08.022Z,17.28
2023-05-08T10:20:42.603Z,17.04
2023-05-08T10:23:23.940Z,17.38
2023-05-08T10:26:02.247Z,17.57
2023-05-08T10:28:37.555Z,17.35
2023-05-08T10:31:08.368Z,16.84
2023-05-08T10:33:42.328Z,16.97
2023-05-08T10:36:13.684Z,17.18
2023-05-08T10:38:44.800Z,17.73
2023-05-08T10:41:20.436Z,16.98
2023-05-08T10:43:52.409Z,16.99
2023-05-08T10:46:30.830Z,17.61
2023-05-08T10:49:08.102Z,18.12
2023-05-08T10:51:57.800Z,18.06
2023-05-08T10:54:29.291Z,19.00
2023-05-08T10:57:11.907Z,18.64
2023-05-08T10:59:51.394Z,18.85
2023-05-08T11:02:38.198Z,17.85
2023-05-08T11:05:24.723Z,17.16
2023-05-08T11:07:57.946Z,17.69
2023-05-08T11:10:33.700Z,18.72
2023-05-08T11:13:01.885Z,18.95
2023-05-08T11:15:44.239Z,18.55
2023-05-08T11:18:12.436Z,19.32
2023-05-08T11:20:57.832Z,18.93
2023-05-08T11:23:36.919Z,19.14
2023-05-08T11:26:08.204Z,19.91
2023-05-08T11:28:41.359Z,19.62
2023-05-08T11:31:12.555Z,19.14
2023-05-08T11:33:41.952Z,19.30
2023-05-08T11:36:22.354Z,19.14
2023-05-08T11:39:13.015Z,19.10
2023-05-08T11:41:40.262Z,19.69
2023-05-08T11:44:22.466Z,19.21
2023-05-08T11:46:52.298Z,19.74
2023-05-08T11:49:29.001Z,19.65
2023-05-08T11:51:58.969Z,19.81
2023-05-08T11:54:30.600Z,18.99
2023-05-08T11:57:00.471Z,19.03
2023-05-08T11:59:28.851Z,19.34
2023-05-08T12:02:08.687Z,19.48
2023-05-08T12:04:48.254Z,20.12
2023-05-08T12:07:16.855Z,19.56
2023-05-08T12:09:49.238Z,19.26
2023-05-08T12:12:17.402Z,19.00
2023-05-08T12:14:49.848Z,18.92
2023-05-08T12:17:21.982Z,18.76
2023-05-08T12:19:54.915Z,18.57
2023-05-08T12:22:25.102Z,18.73
2023-05-08T12:24:55.068Z,18.73
2023-05-08T12:27:22.578Z,18.79
2023-05-08T12:29:52.796Z,18.82
2023-05-08T12:32:21.842Z,19.79
2023-05-08T12:34:49.792Z,19.35
2023-05-08T12:37:25.315Z,19.04
2023-05-08T12:39:56.248Z,19.99
2023-05-08T12:42:41.746Z,20.42
2023-05-08T12:45:10.422Z,19.98
2023-05-08T12:47:40.816Z,20.24
2023-05-08T12:50:12.747Z,20.25
2023-05-08T12:52:40.991Z,20.32
2023-05-08T12:55:29.372Z,21.01
2023-05-08T12:58:14.767Z,20.89
2023-05-08T13:00:49.659Z,20.28
2023-05-08T13:03:29.782Z,21.48
2023-05-08T13:05:59.446Z,20.22
2023-05-08T13:08:34.481Z,20.06
2023-05-08T13:11:04.331Z,20.56
2023-05-08T13:13:34.087Z,20.59
2023-05-08T13:16:06.557Z,21.50
2023-05-08T13:18:36.904Z,21.23
2023-05-08T13:21:05.169Z,20.26
2023-05-08T13:23:35.018Z,20.68
2023-05-08T13:26:03.916Z,21.32
2023-05-08T13:28:31.542Z,21.81
2023-05-08T13:31:00.159Z,20.29
2023-05-08T13:33:31.930Z,21.05
2023-05-08T13:36:00.740Z,20.50
2023-05-08T13:38:28.769Z,20.29
2023-05-08T13:40:56.993Z,20.58
2023-05-08T13:43:29.473Z,20.67
2023-05-08T13:45:56.363Z,20.45
2023-05-08T13:48:24.037Z,20.63
2023-05-08T13:50:52.090Z,20.16
2023-05-08T13:53:20.181Z,20.44
2023-05-08T13:55:47.575Z,19.86
2023-05-08T13:58:15.038Z,20.66
2023-05-08T14:00:42.637Z,21.16
2023-05-08T14:03:10.171Z,21.19
2023-05-08T14:05:37.306Z,21.14
2023-05-08T14:08:05.251Z,21.19
2023-05-08T14:10:32.778Z,21.09
2023-05-08T14:13:00.620Z,20.82
2023-05-08T14:15:36.468Z,20.89
2023-05-08T14:18:05.207Z,21.03
2023-05-08T14:20:32.558Z,20.90
2023-05-08T14:23:00.341Z,20.36
2023-05-08T14:25:28.376Z,19.66
2023-05-08T14:27:56.131Z,20.33
2023-05-08T14:30:23.313Z,20.65
2023-05-08T14:32:51.109Z,20.58
2023-05-08T14:35:18.470Z,20.38
2023-05-08T14:37:48.518Z,19.70
2023-05-08T14:40:15.922Z,20.14
2023-05-08T14:42:44.901Z,20.10
2023-05-08T14:45:12.824Z,19.88
2023-05-08T14:47:40.766Z,20.25
2023-05-08T14:50:12.685Z,20.30
2023-05-08T14:52:40.402Z,19.37
2023-05-08T14:55:08.843Z,19.89
2023-05-08T14:57:36.795Z,19.77
2023-05-08T15:00:08.582Z,19.89
2023-05-08T15:02:35.935Z,19.57
2023-05-08T15:05:08.255Z,20.41
2023-05-08T15:07:40.737Z,20.03
2023-05-08T15:10:10.157Z,20.31
2023-05-08T15:12:38.058Z,19.97
2023-05-08T15:15:06.568Z,20.15
2023-05-08T15:17:36.782Z,19.57
2023-05-08T15:20:06.530Z,18.93
2023-05-08T15:22:38.924Z,19.54
2023-05-08T15:25:07.504Z,19.63
2023-05-08T15:27:35.662Z,19.70
2023-05-08T15:30:04.034Z,19.81
2023-05-08T15:32:32.370Z,20.10
2023-05-08T15:35:00.264Z,19.38
2023-05-08T15:37:28.644Z,20.00
2023-05-08T15:39:56.765Z,20.21
2023-05-08T15:42:27.418Z,20.46
2023-05-08T15:44:59.215Z,20.04
2023-05-08T15:47:27.864Z,19.67
2023-05-08T15:49:56.198Z,19.96
2023-05-08T15:52:24.857Z,20.14
2023-05-08T15:54:52.293Z,20.13
2023-05-08T15:57:20.256Z,20.00
2023-05-08T15:59:48.359Z,19.77
2023-05-08T16:02:16.017Z,19.84
2023-05-08T16:04:44.109Z,19.75
2023-05-08T16:07:12.177Z,19.89
2023-05-08T16:09:40.036Z,19.68
2023-05-08T16:12:08.208Z,19.37
2023-05-08T16:14:36.690Z,19.11
2023-05-08T16:17:04.705Z,19.22
2023-05-08T16:19:38.186Z,19.48
2023-05-08T16:22:07.104Z,19.20
2023-05-08T16:24:34.295Z,18.91
2023-05-08T16:27:02.409Z,18.92
2023-05-08T16:29:30.213Z,18.82
2023-05-08T16:31:58.073Z,18.95
2023-05-08T16:34:26.455Z,18.68
2023-05-08T16:36:54.134Z,18.69
2023-05-08T16:39:25.677Z,18.39
2023-05-08T16:41:53.324Z,18.16
2023-05-08T16:44:21.870Z,17.42
2023-05-08T16:46:49.673Z,17.12
2023-05-08T16:49:17.318Z,17.07
2023-05-08T16:51:45.624Z,16.80
2023-05-08T16:54:13.690Z,16.84
2023-05-08T16:56:42.680Z,16.44
2023-05-08T16:59:10.673Z,16.66
2023-05-08T17:01:44.593Z,16.38
2023-05-08T17:04:12.916Z,16.45
2023-05-08T17:06:41.282Z,16.12
2023-05-08T17:09:10.083Z,16.02
2023-05-08T17:11:41.676Z,15.74
2023-05-08T17:14:10.383Z,16.04
2023-05-08T17:16:42.594Z,15.89
2023-05-08T17:19:11.563Z,15.83
2023-05-08T17:21:47.980Z,15.93
2023-05-08T17:24:17.507Z,15.69
2023-05-08T17:26:49.990Z,15.25
2023-05-08T17:29:18.483Z,15.26
2023-05-08T17:31:47.407Z,15.18
2023-05-08T17:34:16.647Z,15.15
2023-05-08T17:36:44.972Z,14.90
2023-05-08T17:39:13.355Z,14.84
2023-05-08T17:41:41.683Z,14.46
2023-05-08T17:44:12.886Z,14.65
2023-05-08T17:46:41.948Z,14.17
2023-05-08T17:49:19.577Z,13.95
2023-05-08T17:51:49.248Z,13.74
2023-05-08T17:54:17.621Z,13.59
2023-05-08T17:56:57.840Z,13.59
2023-05-08T17:59:27.755Z,13.45
2023-05-08T18:01:56.325Z,13.22
2023-05-08T18:04:31.767Z,13.46
2023-05-08T18:07:02.294Z,13.24
2023-05-08T18:09:31.510Z,13.10
2023-05-08T18:12:03.358Z,12.99
2023-05-08T18:14:33.340Z,13.12
2023-05-08T18:17:02.796Z,12.94
2023-05-08T18:19:34.842Z,12.84
2023-05-08T18:22:05.481Z,12.77
2023-05-08T18:24:37.063Z,12.61
2023-05-08T18:27:07.922Z,12.54
2023-05-08T18:29:38.788Z,12.77
2023-05-08T18:32:13.835Z,12.40
2023-05-08T18:34:45.520Z,12.04
2023-05-08T18:37:13.891Z,11.90
2023-05-08T18:39:43.428Z,11.92
2023-05-08T18:42:15.066Z,11.81
2023-05-08T18:44:45.927Z,12.03
2023-05-08T18:47:14.835Z,11.79
2023-05-08T18:49:47.324Z,11.77
2023-05-08T18:52:17.690Z,11.71
2023-05-08T18:54:47.075Z,11.51
2023-05-08T18:57:16.851Z,11.75
2023-05-08T18:59:45.316Z,11.66
2023-05-08T19:02:14.469Z,11.67
2023-05-08T19:04:43.664Z,11.58
2023-05-08T19:07:12.630Z,11.74
2023-05-08T19:09:44.223Z,11.62
2023-05-08T19:12:15.660Z,11.18
2023-05-08T19:14:46.524Z,11.22
2023-05-08T19:17:14.678Z,11.06
2023-05-08T19:19:46.907Z,11.06
2023-05-08T19:22:15.943Z,10.82
2023-05-08T19:24:48.786Z,10.79
2023-05-08T19:27:18.037Z,10.84
2023-05-08T19:29:46.783Z,10.47
2023-05-08T19:32:15.851Z,10.47
2023-05-08T19:34:48.047Z,10.67
2023-05-08T19:37:16.586Z,10.54
2023-05-08T19:39:47.391Z,10.45
2023-05-08T19:42:18.625Z,10.58
2023-05-08T19:44:48.888Z,10.26
2023-05-08T19:47:22.299Z,10.39
2023-05-08T19:49:51.303Z,10.19
2023-05-08T19:52:21.497Z,10.38
2023-05-08T19:54:50.958Z,10.06
2023-05-08T19:57:24.000Z,10.26
2023-05-08T19:59:53.064Z,10.23
2023-05-08T20:02:21.810Z,10.10
2023-05-08T20:05:14.575Z,9.94
2023-05-08T20:07:38.522Z,10.03
2023-05-08T20:10:07.412Z,10.04
2023-05-08T20:12:37.903Z,9.96
2023-05-08T20:15:06.995Z,9.76
2023-05-08T20:17:34.598Z,9.92
2023-05-08T20:20:03.824Z,9.81
2023-05-08T20:22:31.442Z,9.72
2023-05-08T20:25:00.494Z,9.69
2023-05-08T20:27:30.328Z,9.46
2023-05-08T20:30:03.156Z,9.41
2023-05-08T20:32:31.478Z,9.43
2023-05-08T20:35:02.690Z,9.28
2023-05-08T20:37:31.666Z,9.35
2023-05-08T20:40:00.459Z,9.58
2023-05-08T20:42:31.315Z,9.52
2023-05-08T20:45:01.944Z,9.26
2023-05-08T20:47:34.232Z,9.33
2023-05-08T20:50:05.305Z,9.62
2023-05-08T20:52:38.459Z,9.41
2023-05-08T20:55:09.324Z,9.42
2023-05-08T20:57:40.435Z,9.45
2023-05-08T21:00:13.249Z,9.44
2023-05-08T21:02:46.965Z,9.35
2023-05-08T21:05:19.181Z,9.39
2023-05-08T21:07:47.670Z,9.47
2023-05-08T21:10:16.915Z,9.35
2023-05-08T21:12:47.269Z,9.20
2023-05-08T21:15:16.287Z,9.15
2023-05-08T21:17:46.909Z,9.35
2023-05-08T21:20:18.433Z,9.32
2023-05-08T21:22:49.929Z,9.30
2023-05-08T21:25:33.839Z,9.30
2023-05-08T21:28:06.712Z,9.11
2023-05-08T21:30:38.479Z,9.17
2023-05-08T21:33:14.289Z,9.16
2023-05-08T21:35:44.150Z,9.17
2023-05-08T21:38:12.609Z,9.02
2023-05-08T21:40:46.225Z,8.77
2023-05-08T21:43:14.414Z,8.73
2023-05-08T21:45:48.169Z,8.82
2023-05-08T21:48:19.445Z,8.81
2023-05-08T21:50:54.720Z,8.44
2023-05-08T21:53:26.472Z,8.76
2023-05-08T21:56:03.740Z,8.66
2023-05-08T21:58:37.962Z,8.67
2023-05-08T22:01:09.784Z,8.54
2023-05-08T22:03:38.582Z,8.25
2023-05-08T22:06:08.123Z,7.98
2023-05-08T22:08:39.626Z,7.69
2023-05-08T22:11:08.584Z,7.55
2023-05-08T22:13:37.451Z,7.51
2023-05-08T22:16:10.643Z,7.46
2023-05-08T22:18:42.474Z,7.49
2023-05-08T22:21:14.551Z,7.48
2023-05-08T22:23:43.188Z,7.51
2023-05-08T22:26:12.150Z,7.26
2023-05-08T22:28:41.038Z,7.03
2023-05-08T22:31:09.808Z,7.25
2023-05-08T22:33:37.442Z,7.03
2023-05-08T22:36:05.977Z,7.19
2023-05-08T22:38:39.954Z,6.84
2023-05-08T22:41:09.139Z,7.00
2023-05-08T22:43:38.411Z,6.88
2023-05-08T22:46:06.563Z,6.79
2023-05-08T22:48:35.160Z,6.89
2023-05-08T22:51:03.649Z,6.88
2023-05-08T22:53:32.610Z,6.70
2023-05-08T22:56:00.902Z,6.94
2023-05-08T22:58:31.521Z,7.00
2023-05-08T23:01:00.233Z,7.20
2023-05-08T23:03:35.395Z,7.29
2023-05-08T23:06:03.728Z,7.41
2023-05-08T23:08:32.416Z,7.34
2023-05-08T23:11:00.278Z,7.24
2023-05-08T23:13:32.168Z,7.11
2023-05-08T23:16:00.389Z,7.24
2023-05-08T23:18:34.572Z,7.27
2023-05-08T23:21:08.090Z,7.40
2023-05-08T23:23:35.678Z,7.03
2023-05-08T23:26:05.658Z,7.13
2023-05-08T23:28:37.185Z,7.21
2023-05-08T23:31:05.111Z,7.10
2023-05-08T23:33:32.736Z,7.02
2023-05-08T23:36:01.150Z,7.12
2023-05-08T23:38:29.110Z,7.09
2023-05-08T23:40:57.136Z,6.90
2023-05-08T23:43:28.071Z,6.91
2023-05-08T23:45:56.289Z,6.81
2023-05-08T23:48:25.978Z,6.54
2023-05-08T23:50:53.812Z,6.47
2023-05-08T23:53:22.320Z,6.57
2023-05-08T23:55:51.043Z,6.60
2023-05-08T23:58:21.893Z,6.68
